Time;durP1;ratioP1;P1;durP2;ratioP2;P2;SDS_P1;SDS_P2;PMS_P1;PMS_P2;Temp;Humidity;BMP_temperature;BMP_pressure;BME280_temperature;BME280_humidity;BME280_pressure;Samples;Min_cycle;Max_cycle;Signal;HPM_P1;HPM_P2
2022/07/05 00:02:24;;;;;;;7.88;4.38;;;12.00;99.90;;;;;;4938921;28;20566;-83
2022/07/05 00:04:50;;;;;;;7.00;4.25;;;12.00;99.90;;;;;;4953397;28;20065;-83
2022/07/05 00:07:19;;;;;;;5.95;4.20;;;12.00;99.90;;;;;;4940645;28;20356;-83
2022/07/05 00:09:54;;;;;;;5.50;4.30;;;11.90;99.90;;;;;;4957104;28;20045;-83
2022/07/05 00:12:22;;;;;;;6.15;4.25;;;11.90;99.90;;;;;;4938147;28;20047;-83
2022/07/05 00:14:54;;;;;;;5.13;4.15;;;11.80;99.90;;;;;;4953415;28;20047;-83
2022/07/05 00:17:20;;;;;;;5.13;4.00;;;11.80;99.90;;;;;;4939391;28;20093;-83
2022/07/05 00:19:46;;;;;;;6.32;4.13;;;11.80;99.90;;;;;;4937624;28;20042;-83
2022/07/05 00:22:12;;;;;;;5.38;4.32;;;11.80;99.90;;;;;;4954468;28;20035;-83
2022/07/05 00:24:37;;;;;;;6.20;4.63;;;11.70;99.90;;;;;;4937085;28;20487;-83
2022/07/05 00:27:03;;;;;;;5.93;5.05;;;11.70;99.90;;;;;;4955307;28;20094;-83
2022/07/05 00:29:31;;;;;;;8.00;5.00;;;11.70;99.90;;;;;;4954585;28;20376;-83
2022/07/05 00:31:57;;;;;;;6.40;4.88;;;11.70;99.90;;;;;;4954004;28;20387;-83
2022/07/05 00:34:23;;;;;;;6.32;4.55;;;11.70;99.90;;;;;;4969891;28;20055;-83
2022/07/05 00:36:49;;;;;;;6.40;4.43;;;11.70;99.90;;;;;;4938788;28;20118;-83
2022/07/05 00:39:14;;;;;;;5.15;4.38;;;11.70;99.90;;;;;;4937747;28;20043;-83
2022/07/05 00:41:40;;;;;;;6.18;5.10;;;11.70;99.90;;;;;;4937857;28;20382;-83
2022/07/05 00:44:09;;;;;;;7.53;4.97;;;11.60;99.90;;;;;;4938283;28;22491;-83
2022/07/05 00:46:36;;;;;;;6.57;4.93;;;11.60;99.90;;;;;;4937674;28;20039;-83
2022/07/05 00:49:03;;;;;;;6.38;4.75;;;11.60;99.90;;;;;;4938134;28;20699;-82
2022/07/05 00:51:32;;;;;;;5.60;4.32;;;11.50;99.90;;;;;;4936028;28;20187;-83
2022/07/05 00:53:59;;;;;;;7.95;4.90;;;11.50;99.90;;;;;;4938324;28;20022;-83
2022/07/05 00:56:25;;;;;;;5.03;4.13;;;11.50;99.90;;;;;;4952979;28;20043;-82
2022/07/05 00:58:51;;;;;;;6.88;4.80;;;11.60;99.90;;;;;;4937590;28;20050;-82
2022/07/05 01:01:18;;;;;;;7.80;5.03;;;11.50;99.90;;;;;;4935223;28;20061;-83
2022/07/05 01:03:44;;;;;;;6.30;5.15;;;11.50;99.90;;;;;;4953444;28;20039;-83
2022/07/05 01:06:11;;;;;;;7.47;5.13;;;11.50;99.90;;;;;;4937064;28;20504;-83
2022/07/05 01:08:39;;;;;;;9.50;6.00;;;11.50;99.90;;;;;;4938921;28;20035;-82
2022/07/05 01:11:06;;;;;;;5.40;4.90;;;11.50;99.90;;;;;;4935360;28;20450;-83
2022/07/05 01:13:33;;;;;;;6.50;5.35;;;11.50;99.90;;;;;;4940497;28;20420;-83
2022/07/05 01:16:00;;;;;;;6.40;5.70;;;11.60;99.90;;;;;;4950231;28;20039;-82
2022/07/05 01:18:25;;;;;;;7.63;4.80;;;11.50;99.90;;;;;;4936423;28;20121;-82
2022/07/05 01:20:51;;;;;;;6.35;5.10;;;11.50;99.90;;;;;;4936293;28;20049;-82
2022/07/05 01:23:18;;;;;;;7.55;4.60;;;11.50;99.90;;;;;;4949946;28;20043;-82
2022/07/05 01:25:47;;;;;;;7.47;5.15;;;11.50;99.90;;;;;;4937277;28;20035;-82
2022/07/05 01:28:13;;;;;;;5.43;4.75;;;11.50;99.90;;;;;;4935310;28;20035;-82
2022/07/05 01:30:39;;;;;;;6.93;4.90;;;11.50;99.90;;;;;;4934493;28;20035;-82
2022/07/05 01:33:07;;;;;;;6.53;5.32;;;11.40;99.90;;;;;;4938547;28;20048;-82
2022/07/05 01:35:33;;;;;;;6.72;4.60;;;11.40;99.90;;;;;;4951212;28;20039;-82
2022/07/05 01:37:59;;;;;;;4.93;4.05;;;11.40;99.90;;;;;;4938361;28;20244;-82
2022/07/05 01:40:26;;;;;;;7.28;4.82;;;11.40;99.90;;;;;;4937056;28;20217;-82
2022/07/05 01:42:58;;;;;;;7.95;4.07;;;11.40;99.90;;;;;;4935232;28;20550;-82
2022/07/05 01:45:44;;;;;;;9.48;4.90;;;11.40;99.90;;;;;;4948122;28;20625;-82
2022/07/05 01:48:14;;;;;;;7.10;5.00;;;11.30;99.90;;;;;;4945648;28;20042;-82
2022/07/05 01:50:48;;;;;;;8.48;5.10;;;11.30;99.90;;;;;;4935173;28;20050;-82
2022/07/05 01:53:33;;;;;;;5.30;4.68;;;11.30;99.90;;;;;;4952105;28;20199;-82
2022/07/05 01:56:03;;;;;;;6.38;4.80;;;11.20;99.90;;;;;;4952032;28;20055;-82
2022/07/05 01:58:30;;;;;;;5.63;4.68;;;11.30;99.90;;;;;;4945909;28;20129;-82
2022/07/05 02:01:00;;;;;;;8.07;5.40;;;11.20;99.90;;;;;;4951180;28;20063;-82
2022/07/05 02:03:26;;;;;;;6.43;5.22;;;11.20;99.90;;;;;;4948843;28;20072;-82
2022/07/05 02:05:53;;;;;;;8.27;4.85;;;11.20;99.90;;;;;;4935154;28;20126;-82
2022/07/05 02:08:20;;;;;;;8.70;5.43;;;11.10;99.90;;;;;;4937743;28;20035;-82
2022/07/05 02:10:46;;;;;;;9.18;5.40;;;11.10;99.90;;;;;;4934566;28;20069;-82
2022/07/05 02:13:12;;;;;;;6.85;5.30;;;11.20;99.90;;;;;;4934443;28;20046;-82
2022/07/05 02:15:40;;;;;;;7.60;5.25;;;11.20;99.90;;;;;;4937351;28;20035;-82
2022/07/05 02:18:07;;;;;;;7.05;4.85;;;11.10;99.90;;;;;;4935220;28;20858;-82
2022/07/05 02:20:34;;;;;;;7.20;4.80;;;11.10;99.90;;;;;;4920965;28;20043;-82
2022/07/05 02:23:00;;;;;;;7.40;4.97;;;11.10;99.90;;;;;;4934268;28;20039;-82
2022/07/05 02:25:26;;;;;;;9.70;6.05;;;11.10;99.90;;;;;;4951433;28;20503;-82
2022/07/05 02:27:53;;;;;;;8.20;6.35;;;11.10;99.90;;;;;;4935648;28;20521;-82
2022/07/05 02:30:19;;;;;;;7.10;5.13;;;11.10;99.90;;;;;;4948410;28;20047;-82
2022/07/05 02:32:46;;;;;;;10.68;4.60;;;11.00;99.90;;;;;;4938163;28;20125;-81
2022/07/05 02:35:14;;;;;;;6.95;5.38;;;11.10;99.90;;;;;;4934975;28;20046;-82
2022/07/05 02:37:41;;;;;;;7.07;4.47;;;11.10;99.90;;;;;;4939570;28;20035;-81
2022/07/05 02:40:11;;;;;;;10.02;5.15;;;11.10;99.90;;;;;;4935430;28;20202;-82
2022/07/05 02:42:38;;;;;;;7.57;4.50;;;11.10;99.90;;;;;;4937980;28;20039;-82
2022/07/05 02:45:05;;;;;;;4.97;4.47;;;11.00;99.90;;;;;;4933720;28;20662;-82
2022/07/05 02:47:33;;;;;;;7.72;4.70;;;11.00;99.90;;;;;;4952441;28;20042;-82
2022/07/05 02:50:02;;;;;;;6.20;4.45;;;11.00;99.90;;;;;;4935237;28;20042;-81
2022/07/05 02:52:28;;;;;;;4.93;4.40;;;11.00;99.90;;;;;;4952964;28;21007;-81
2022/07/05 02:54:54;;;;;;;5.10;4.60;;;10.90;99.90;;;;;;4937320;28;20492;-81
2022/07/05 02:57:20;;;;;;;6.35;5.20;;;11.00;99.90;;;;;;4952148;28;20050;-82
2022/07/05 02:59:46;;;;;;;7.85;6.07;;;10.90;99.90;;;;;;4952349;28;20053;-82
2022/07/05 03:02:11;;;;;;;9.23;5.88;;;10.90;99.90;;;;;;4952509;28;20157;-82
2022/07/05 03:04:37;;;;;;;6.18;5.00;;;11.00;99.90;;;;;;4937572;28;20050;-81
2022/07/05 03:07:03;;;;;;;5.93;4.88;;;11.00;99.90;;;;;;4952025;28;20778;-81
2022/07/05 03:09:28;;;;;;;7.40;5.15;;;10.90;99.90;;;;;;4934670;28;20027;-81
2022/07/05 03:11:54;;;;;;;7.57;6.28;;;10.80;99.90;;;;;;4936769;28;20098;-82
2022/07/05 03:14:20;;;;;;;7.25;5.88;;;10.90;99.90;;;;;;4937018;28;20470;-81
2022/07/05 03:16:45;;;;;;;8.00;6.05;;;11.00;99.90;;;;;;4936239;28;20062;-82
2022/07/05 03:19:11;;;;;;;8.48;6.32;;;11.00;99.90;;;;;;4936393;28;20104;-81
2022/07/05 03:21:37;;;;;;;9.93;6.15;;;10.90;99.90;;;;;;4937137;28;20097;-81
2022/07/05 03:24:04;;;;;;;8.98;6.50;;;11.00;99.90;;;;;;4938472;28;20038;-82
2022/07/05 03:26:30;;;;;;;8.63;5.80;;;11.00;99.90;;;;;;4942907;28;20073;-81
2022/07/05 03:28:56;;;;;;;8.35;6.40;;;10.90;99.90;;;;;;4938872;28;20565;-81
2022/07/05 03:31:22;;;;;;;8.27;6.47;;;10.90;99.90;;;;;;4940623;28;20042;-81
2022/07/05 03:33:47;;;;;;;8.02;5.30;;;10.90;99.90;;;;;;4937651;28;20094;-81
2022/07/05 03:36:13;;;;;;;7.50;5.65;;;10.90;99.90;;;;;;4937516;28;20042;-81
2022/07/05 03:38:38;;;;;;;7.85;6.03;;;10.90;99.90;;;;;;4938774;28;20031;-81
2022/07/05 03:41:04;;;;;;;9.13;6.45;;;11.00;99.90;;;;;;4940022;28;20039;-81
2022/07/05 03:43:30;;;;;;;7.65;6.85;;;11.00;1.00;;;;;;4937821;28;20034;-81
2022/07/05 03:45:56;;;;;;;10.68;6.40;;;11.10;1.00;;;;;;4940030;28;20046;-81
2022/07/05 03:48:21;;;;;;;8.15;6.95;;;11.10;1.00;;;;;;4953705;28;20050;-81
2022/07/05 03:50:47;;;;;;;9.80;7.10;;;11.10;1.00;;;;;;4956593;28;20042;-81
2022/07/05 03:53:13;;;;;;;8.07;6.28;;;11.20;1.00;;;;;;4939337;28;20034;-81
2022/07/05 03:55:38;;;;;;;9.15;7.18;;;11.20;1.00;;;;;;4938968;28;20141;-81
2022/07/05 03:58:04;;;;;;;8.63;6.47;;;11.20;1.00;;;;;;4938671;28;20039;-81
2022/07/05 04:00:30;;;;;;;9.43;6.68;;;11.30;99.90;;;;;;4951484;28;20373;-82
2022/07/05 04:02:56;;;;;;;9.05;6.85;;;11.30;99.90;;;;;;4941955;28;20043;-81
2022/07/05 04:05:22;;;;;;;7.80;7.00;;;11.40;99.90;;;;;;4938650;28;20055;-81
2022/07/05 04:07:53;;;;;;;8.68;6.93;;;11.50;1.00;;;;;;4939586;28;20200;-81
2022/07/05 04:10:20;;;;;;;9.75;7.47;;;11.60;1.00;;;;;;4940659;28;20138;-81
2022/07/05 04:12:46;;;;;;;9.75;7.38;;;11.70;99.90;;;;;;4953974;28;20218;-81
2022/07/05 04:15:12;;;;;;;9.25;6.68;;;11.70;99.90;;;;;;4955359;28;20553;-82
2022/07/05 04:17:52;;;;;;;9.50;6.78;;;11.80;99.90;;;;;;4939611;28;20035;-81
2022/07/05 04:20:21;;;;;;;7.10;6.40;;;12.00;99.90;;;;;;4938524;28;20094;-81
2022/07/05 04:22:46;;;;;;;8.02;6.30;;;12.10;99.90;;;;;;4940018;28;20473;-81
2022/07/05 04:25:18;;;;;;;9.13;6.57;;;12.20;99.90;;;;;;4952228;28;20043;-81
2022/07/05 04:27:49;;;;;;;9.15;7.25;;;12.40;99.90;;;;;;4954788;28;20386;-81
2022/07/05 04:30:16;;;;;;;10.32;7.10;;;12.60;99.90;;;;;;4956410;28;20039;-81
2022/07/05 04:32:43;;;;;;;7.72;6.93;;;12.80;99.90;;;;;;4937960;28;20042;-81
2022/07/05 04:35:09;;;;;;;9.50;6.63;;;12.90;99.90;;;;;;4955007;28;20070;-81
2022/07/05 04:37:35;;;;;;;11.07;6.90;;;13.10;99.90;;;;;;4954237;28;20129;-81
2022/07/05 04:40:02;;;;;;;8.48;6.53;;;13.20;99.90;;;;;;4938946;28;20051;-81
2022/07/05 04:42:28;;;;;;;11.48;7.22;;;13.30;99.90;;;;;;4956965;28;20043;-81
2022/07/05 04:44:53;;;;;;;9.68;7.10;;;13.40;99.90;;;;;;4937029;28;20395;-81
2022/07/05 04:47:19;;;;;;;10.02;6.63;;;13.40;99.90;;;;;;4954305;28;20119;-81
2022/07/05 04:49:45;;;;;;;7.95;6.55;;;13.40;99.90;;;;;;4953376;28;20049;-81
2022/07/05 04:52:11;;;;;;;7.07;6.28;;;13.40;99.90;;;;;;4954696;28;20964;-81
2022/07/05 04:54:37;;;;;;;8.00;6.72;;;13.40;99.90;;;;;;4954898;28;20122;-81
2022/07/05 04:57:03;;;;;;;7.80;6.30;;;13.30;99.90;;;;;;4949506;28;20035;-81
2022/07/05 04:59:29;;;;;;;8.23;6.72;;;13.40;99.90;;;;;;4933724;29;20562;-81
2022/07/05 05:01:55;;;;;;;7.85;6.70;;;13.40;99.90;;;;;;4918743;29;20031;-81
2022/07/05 05:04:21;;;;;;;6.32;5.72;;;13.30;99.90;;;;;;4917983;29;20114;-81
2022/07/05 05:06:47;;;;;;;7.43;5.85;;;13.30;99.90;;;;;;4918835;29;20031;-81
2022/07/05 05:09:12;;;;;;;10.98;6.20;;;13.30;99.90;;;;;;4919556;29;20122;-81
2022/07/05 05:11:38;;;;;;;9.55;5.82;;;13.30;99.90;;;;;;4934735;29;20055;-81
2022/07/05 05:14:04;;;;;;;8.60;6.25;;;13.40;99.90;;;;;;4918520;29;20046;-81
2022/07/05 05:16:29;;;;;;;8.88;6.00;;;13.50;99.90;;;;;;4917024;29;20050;-81
2022/07/05 05:18:55;;;;;;;6.88;5.75;;;13.70;99.90;;;;;;4949008;28;20412;-81
2022/07/05 05:21:21;;;;;;;8.70;5.97;;;13.80;99.90;;;;;;4921432;29;20050;-81
2022/07/05 05:23:47;;;;;;;8.63;5.50;;;14.00;99.90;;;;;;4933782;28;20412;-81
2022/07/05 05:26:13;;;;;;;7.78;5.28;;;14.10;99.90;;;;;;4918214;29;20154;-81
2022/07/05 05:28:38;;;;;;;6.15;4.97;;;14.20;99.90;;;;;;4932844;29;20219;-81
2022/07/05 05:31:05;;;;;;;8.25;5.20;;;14.40;88.10;;;;;;4920225;29;20046;-81
2022/07/05 05:33:30;;;;;;;6.53;5.68;;;14.50;51.40;;;;;;4917396;29;20384;-81
2022/07/05 05:35:57;;;;;;;6.68;5.38;;;14.50;34.20;;;;;;4920594;29;20031;-81
2022/07/05 05:38:22;;;;;;;6.03;4.95;;;14.60;4.30;;;;;;4918393;29;20130;-81
2022/07/05 05:40:48;;;;;;;5.43;4.93;;;14.70;1.00;;;;;;4918170;29;20046;-81
2022/07/05 05:43:14;;;;;;;6.97;5.15;;;14.80;1.00;;;;;;4931253;28;20051;-81
2022/07/05 05:45:39;;;;;;;6.95;4.93;;;14.80;1.00;;;;;;4930122;29;20208;-81
2022/07/05 05:48:05;;;;;;;8.77;5.00;;;15.00;1.00;;;;;;4918298;29;20305;-81
2022/07/05 05:50:34;;;;;;;7.47;5.18;;;15.10;1.00;;;;;;4917229;29;20055;-81
2022/07/05 05:53:00;;;;;;;6.97;4.70;;;15.10;1.00;;;;;;4918012;29;20031;-81
2022/07/05 05:55:28;;;;;;;8.40;4.85;;;15.30;1.00;;;;;;4923204;28;20255;-81
2022/07/05 05:57:54;;;;;;;5.70;4.78;;;15.30;1.00;;;;;;4935138;28;20232;-81
2022/07/05 06:00:21;;;;;;;9.10;4.80;;;15.40;1.00;;;;;;4949951;28;20046;-81
2022/07/05 06:02:49;;;;;;;6.35;4.45;;;15.50;1.00;;;;;;4936761;28;20035;-81
2022/07/05 06:05:15;;;;;;;5.93;3.90;;;15.60;1.00;;;;;;4951858;28;20101;-81
2022/07/05 06:07:56;;;;;;;10.57;4.40;;;15.70;1.00;;;;;;4936576;28;20107;-81
2022/07/05 06:10:28;;;;;;;6.18;4.00;;;15.80;1.00;;;;;;4950465;28;20046;-81
2022/07/05 06:12:55;;;;;;;7.57;4.07;;;15.80;1.00;;;;;;4950369;28;20046;-81
2022/07/05 06:15:21;;;;;;;6.53;3.83;;;15.90;1.00;;;;;;4948545;28;20057;-80
2022/07/05 06:17:47;;;;;;;3.92;3.22;;;16.10;1.00;;;;;;4935277;28;20034;-81
2022/07/05 06:20:16;;;;;;;5.47;3.50;;;16.20;1.00;;;;;;4935454;28;20042;-81
2022/07/05 06:22:42;;;;;;;5.25;3.72;;;16.30;1.00;;;;;;4937075;28;20046;-81
2022/07/05 06:25:11;;;;;;;4.55;3.55;;;16.40;1.00;;;;;;4938115;28;20046;-81
2022/07/05 06:27:41;;;;;;;6.30;3.50;;;16.40;1.00;;;;;;4942579;28;20467;-81
2022/07/05 06:30:08;;;;;;;4.20;3.10;;;16.60;99.90;;;;;;4932236;28;20039;-81
2022/07/05 06:32:33;;;;;;;4.97;2.88;;;16.60;99.90;;;;;;4950495;28;20078;-81
2022/07/05 06:34:59;;;;;;;5.78;3.10;;;16.70;99.90;;;;;;4936780;28;20073;-82
2022/07/05 06:37:25;;;;;;;4.75;3.20;;;16.70;99.90;;;;;;4935522;28;20103;-81
2022/07/05 06:39:50;;;;;;;4.47;2.80;;;16.90;99.90;;;;;;4953402;28;20572;-81
2022/07/05 06:42:16;;;;;;;4.72;2.90;;;16.90;99.90;;;;;;4966580;28;20069;-81
2022/07/05 06:44:45;;;;;;;6.60;3.45;;;16.90;99.90;;;;;;4950866;28;20054;-81
2022/07/05 06:47:10;;;;;;;5.47;2.55;;;17.10;99.90;;;;;;4950821;28;20073;-81
2022/07/05 06:49:38;;;;;;;2.72;1.65;;;17.20;99.90;;;;;;4953772;28;20129;-81
2022/07/05 06:52:04;;;;;;;5.97;1.60;;;17.30;99.90;;;;;;4936021;28;20034;-81
2022/07/05 06:54:30;;;;;;;5.38;1.80;;;17.40;99.90;;;;;;4952356;28;20050;-81
2022/07/05 06:56:56;;;;;;;4.65;1.90;;;17.40;99.90;;;;;;4938542;28;20420;-81
2022/07/05 06:59:22;;;;;;;6.25;1.75;;;17.40;99.90;;;;;;4955027;28;20046;-81
2022/07/05 07:01:48;;;;;;;4.85;1.60;;;17.50;99.90;;;;;;4938393;28;20164;-81
2022/07/05 07:04:13;;;;;;;2.92;1.55;;;17.50;99.90;;;;;;4943728;28;20315;-88
2022/07/05 07:06:39;;;;;;;2.47;1.20;;;17.60;99.90;;;;;;4963597;28;20046;-89
2022/07/05 07:09:22;;;;;;;7.88;1.50;;;17.60;99.90;;;;;;4943582;28;20043;-89
2022/07/05 07:11:48;;;;;;;4.38;1.42;;;17.80;99.90;;;;;;4960696;28;20050;-90
2022/07/05 07:14:14;;;;;;;4.82;1.30;;;18.00;99.90;;;;;;4946452;28;20101;-88
2022/07/05 07:16:40;;;;;;;5.72;1.30;;;18.20;99.90;;;;;;4944051;28;20097;-89
2022/07/05 07:19:06;;;;;;;3.60;1.48;;;18.40;99.90;;;;;;4946360;28;20035;-89
2022/07/05 07:21:35;;;;;;;2.78;1.05;;;18.40;99.90;;;;;;4949113;28;20038;-89
2022/07/05 07:24:01;;;;;;;6.65;1.65;;;18.30;99.90;;;;;;4949799;28;20052;-88
2022/07/05 07:26:27;;;;;;;3.08;1.58;;;18.50;99.90;;;;;;4947111;28;20395;-88
2022/07/05 07:28:52;;;;;;;4.25;1.15;;;18.70;91.80;;;;;;4948224;28;20141;-89
2022/07/05 07:31:18;;;;;;;2.50;1.05;;;18.80;66.60;;;;;;4948724;28;20414;-88
2022/07/05 07:33:43;;;;;;;4.15;1.10;;;19.40;99.90;;;;;;4965235;28;20030;-90
2022/07/05 07:36:12;;;;;;;2.95;1.00;;;18.90;96.50;;;;;;4964316;28;20522;-89
2022/07/05 07:38:38;;;;;;;3.05;1.02;;;18.70;69.30;;;;;;4945163;28;20385;-89
2022/07/05 07:41:04;;;;;;;4.65;1.30;;;18.60;71.70;;;;;;4947983;28;20039;-89
2022/07/05 07:43:29;;;;;;;2.63;1.40;;;18.40;99.90;;;;;;4961386;28;20243;-90
2022/07/05 07:45:56;;;;;;;2.67;1.05;;;18.40;99.90;;;;;;4947596;28;20050;-89
2022/07/05 07:48:22;;;;;;;4.53;1.25;;;18.50;99.90;;;;;;4962639;28;20360;-89
2022/07/05 07:50:48;;;;;;;5.57;1.70;;;18.30;99.90;;;;;;4950046;28;20042;-90
2022/07/05 07:53:14;;;;;;;5.50;1.20;;;18.80;99.90;;;;;;4947976;28;20043;-89
2022/07/05 07:55:39;;;;;;;2.60;1.00;;;19.00;80.20;;;;;;4943340;28;20094;-88
2022/07/05 07:58:05;;;;;;;3.63;1.10;;;18.90;54.90;;;;;;4941701;28;20067;-89
2022/07/05 08:00:31;;;;;;;3.72;1.20;;;18.90;88.70;;;;;;4959022;28;20537;-90
2022/07/05 08:02:58;;;;;;;4.20;1.17;;;18.70;99.90;;;;;;4941801;28;20046;-88
2022/07/05 08:05:23;;;;;;;2.30;1.20;;;18.50;77.30;;;;;;4942896;28;20035;-89
2022/07/05 08:07:51;;;;;;;2.40;1.05;;;18.40;99.90;;;;;;4941391;28;20458;-88
2022/07/05 08:10:17;;;;;;;4.45;1.10;;;18.60;97.30;;;;;;4942627;28;20690;-89
2022/07/05 08:12:42;;;;;;;2.65;1.00;;;19.00;91.20;;;;;;4955682;28;20043;-90
2022/07/05 08:15:08;;;;;;;3.72;1.02;;;19.00;99.90;;;;;;4941168;28;20047;-90
2022/07/05 08:17:34;;;;;;;2.35;0.98;;;19.20;48.80;;;;;;4945885;28;20050;-89
2022/07/05 08:22:44;;;;;;;2.88;1.05;;;19.60;37.20;;;;;;4956884;28;20135;-90
2022/07/05 08:25:09;;;;;;;3.63;0.90;;;19.80;96.60;;;;;;4940718;28;20043;-89
2022/07/05 08:27:35;;;;;;;3.40;1.05;;;19.60;35.30;;;;;;4958500;28;20293;-88
2022/07/05 08:30:01;;;;;;;5.88;1.30;;;19.70;60.80;;;;;;4942068;28;20066;-89
2022/07/05 08:32:27;;;;;;;3.45;1.10;;;19.70;92.20;;;;;;4954930;28;21021;-90
2022/07/05 08:34:53;;;;;;;5.15;1.40;;;19.80;25.30;;;;;;4941193;28;20078;-89
2022/07/05 08:37:19;;;;;;;6.93;1.10;;;20.10;69.00;;;;;;4956198;28;20045;-90
2022/07/05 08:39:45;;;;;;;3.70;1.10;;;19.90;52.90;;;;;;4939717;28;20411;-89
2022/07/05 08:42:11;;;;;;;5.63;1.33;;;19.10;14.60;;;;;;4939685;28;20047;-87
2022/07/05 08:44:38;;;;;;;3.35;1.20;;;18.80;7.90;;;;;;4954673;28;20039;-89
2022/07/05 08:47:11;;;;;;;3.45;1.20;;;19.00;30.00;;;;;;4940975;28;20053;-90
2022/07/05 08:49:40;;;;;;;2.25;1.35;;;19.10;32.30;;;;;;4942619;28;20439;-88
2022/07/05 08:52:10;;;;;;;2.92;0.90;;;18.70;30.00;;;;;;4940850;28;20034;-90
2022/07/05 08:54:37;;;;;;;4.63;1.38;;;18.50;54.70;;;;;;4942787;28;20089;-89
2022/07/05 08:57:03;;;;;;;2.70;0.98;;;19.00;44.80;;;;;;4940276;28;20174;-89
2022/07/05 08:59:28;;;;;;;3.58;1.13;;;19.40;83.50;;;;;;4942658;28;20527;-90
2022/07/05 09:01:56;;;;;;;2.35;1.10;;;19.70;99.90;;;;;;4935165;28;20263;-89
2022/07/05 09:04:23;;;;;;;3.20;1.02;;;19.80;3.50;;;;;;4957380;28;20038;-87
2022/07/05 09:06:56;;;;;;;2.83;1.08;;;19.90;1.00;;;;;;4936440;28;20031;-88
2022/07/05 09:09:27;;;;;;;3.10;1.17;;;20.40;1.00;;;;;;4957980;28;20397;-88
2022/07/05 09:11:53;;;;;;;5.07;1.30;;;20.40;1.00;;;;;;4942476;28;20043;-88
2022/07/05 09:14:21;;;;;;;3.92;1.15;;;20.70;1.00;;;;;;4959185;28;20047;-89
2022/07/05 09:16:47;;;;;;;1.17;0.95;;;20.50;1.00;;;;;;4940788;28;20118;-88
2022/07/05 09:19:13;;;;;;;2.50;1.00;;;20.50;1.00;;;;;;4938095;28;20134;-87
2022/07/05 09:21:39;;;;;;;4.80;1.10;;;20.30;1.00;;;;;;4937541;28;20765;-90
2022/07/05 09:24:07;;;;;;;2.65;1.13;;;19.50;1.00;;;;;;4957290;28;20248;-90
2022/07/05 09:26:49;;;;;;;2.47;1.13;;;19.70;1.00;;;;;;4939434;28;20039;-89
2022/07/05 09:29:19;;;;;;;2.72;0.90;;;19.60;1.00;;;;;;4952660;28;20250;-89
2022/07/05 09:31:48;;;;;;;3.55;1.05;;;19.70;1.00;;;;;;4953655;28;20398;-88
2022/07/05 09:34:21;;;;;;;4.47;1.15;;;20.20;1.00;;;;;;4970633;28;20552;-89
2022/07/05 09:36:57;;;;;;;1.95;1.02;;;20.70;1.00;;;;;;4942212;28;20047;-89
2022/07/05 09:39:29;;;;;;;3.72;1.20;;;20.70;1.00;;;;;;4941021;28;20057;-89
2022/07/05 09:42:23;;;;;;;2.65;0.88;;;20.30;1.00;;;;;;4943701;28;20089;-88
2022/07/05 09:44:54;;;;;;;4.57;1.10;;;20.50;1.00;;;;;;4942485;28;20047;-89
2022/07/05 09:47:24;;;;;;;3.95;1.13;;;20.90;1.00;;;;;;4956526;28;20070;-89
2022/07/05 09:49:52;;;;;;;1.88;1.10;;;21.00;1.00;;;;;;4954717;28;20039;-90
2022/07/05 09:52:30;;;;;;;4.65;1.25;;;20.90;1.00;;;;;;4940568;28;20053;-88
2022/07/05 09:55:05;;;;;;;4.72;1.35;;;21.20;1.00;;;;;;4954407;28;20046;-88
2022/07/05 09:57:31;;;;;;;4.28;1.00;;;21.00;1.00;;;;;;4942179;28;20177;-90
2022/07/05 10:00:02;;;;;;;2.55;0.98;;;21.70;1.00;;;;;;4954014;28;20047;-88
2022/07/05 10:02:34;;;;;;;2.92;1.23;;;22.10;1.00;;;;;;4942964;28;20035;-90
2022/07/05 10:05:20;;;;;;;2.55;0.90;;;21.10;1.00;;;;;;4953576;28;20062;-90
2022/07/05 10:07:51;;;;;;;2.63;0.90;;;20.60;1.00;;;;;;4950842;28;20035;-88
2022/07/05 10:10:24;;;;;;;2.60;1.10;;;20.50;1.00;;;;;;4956938;28;20035;-90
2022/07/05 10:12:52;;;;;;;4.50;1.38;;;20.30;1.00;;;;;;4940973;28;20043;-89
2022/07/05 10:15:23;;;;;;;3.38;1.08;;;20.40;1.00;;;;;;4958559;28;20398;-89
2022/07/05 10:18:10;;;;;;;4.18;1.15;;;21.10;1.00;;;;;;4955607;28;20072;-89
2022/07/05 10:20:46;;;;;;;4.10;1.02;;;20.80;1.00;;;;;;4956705;28;20054;-89
2022/07/05 10:23:17;;;;;;;3.55;0.80;;;20.40;1.00;;;;;;4939087;28;20069;-89
2022/07/05 10:25:48;;;;;;;2.58;1.02;;;19.70;1.00;;;;;;4940513;28;20097;-88
2022/07/05 10:28:16;;;;;;;4.63;1.17;;;19.70;1.00;;;;;;4943242;28;20629;-87
2022/07/05 10:30:45;;;;;;;3.97;1.27;;;19.80;1.00;;;;;;4943329;28;20403;-89
2022/07/05 10:33:14;;;;;;;2.75;1.00;;;20.20;1.00;;;;;;4973256;28;20099;-90
2022/07/05 10:35:43;;;;;;;2.00;1.10;;;20.20;1.00;;;;;;4940701;28;20516;-88
2022/07/05 10:38:10;;;;;;;6.78;1.20;;;20.50;1.00;;;;;;4953986;28;20052;-89
2022/07/05 10:40:36;;;;;;;4.82;1.33;;;20.60;1.00;;;;;;4957387;28;20050;-89
2022/07/05 10:43:03;;;;;;;3.45;1.10;;;20.30;1.00;;;;;;4942820;28;20647;-89
2022/07/05 10:45:34;;;;;;;4.93;1.40;;;20.30;1.00;;;;;;4957643;28;20419;-89
2022/07/05 10:48:16;;;;;;;4.45;1.08;;;20.20;1.00;;;;;;4953967;28;20046;-88
2022/07/05 10:50:50;;;;;;;3.03;1.15;;;20.30;1.00;;;;;;4959624;28;20058;-90
2022/07/05 10:53:27;;;;;;;2.95;1.02;;;20.40;1.00;;;;;;4943569;28;20049;-90
2022/07/05 10:56:05;;;;;;;3.25;1.10;;;20.80;1.00;;;;;;4957071;28;20134;-90
2022/07/05 10:58:37;;;;;;;5.55;1.00;;;20.70;1.00;;;;;;4957641;28;20491;-89
2022/07/05 11:01:12;;;;;;;2.08;1.02;;;21.90;1.00;;;;;;4958612;28;20094;-87
2022/07/05 11:03:47;;;;;;;4.15;1.10;;;20.90;1.00;;;;;;4961292;28;20128;-86
2022/07/05 11:06:24;;;;;;;2.67;1.02;;;20.50;1.00;;;;;;4947015;28;20122;-86
2022/07/05 11:08:59;;;;;;;9.43;3.17;;;21.20;1.00;;;;;;4941608;28;20039;-86
2022/07/05 11:11:34;;;;;;;4.07;1.35;;;21.70;1.00;;;;;;4940702;28;20164;-86
2022/07/05 11:14:02;;;;;;;6.72;3.15;;;21.70;1.00;;;;;;4944479;28;20130;-88
2022/07/05 11:16:31;;;;;;;3.15;1.15;;;21.50;1.00;;;;;;4947811;28;20482;-88
2022/07/05 11:19:11;;;;;;;3.88;1.27;;;21.70;1.00;;;;;;4951755;28;20692;-87
2022/07/05 11:21:42;;;;;;;4.35;1.35;;;21.80;1.00;;;;;;4957607;28;20034;-85
2022/07/05 11:24:26;;;;;;;2.50;1.13;;;20.70;1.00;;;;;;4948841;28;20085;-87
2022/07/05 11:26:56;;;;;;;3.58;1.08;;;19.70;1.00;;;;;;4946979;28;20054;-89
2022/07/05 11:29:45;;;;;;;4.38;1.00;;;20.50;1.00;;;;;;4943443;28;20043;-89
2022/07/05 11:32:19;;;;;;;2.90;1.10;;;20.60;1.00;;;;;;4943889;28;20046;-87
2022/07/05 11:34:48;;;;;;;4.70;1.25;;;20.40;1.00;;;;;;4979382;28;20106;-88
2022/07/05 11:37:26;;;;;;;3.72;0.98;;;20.60;1.00;;;;;;4960308;28;20050;-89
2022/07/05 11:40:29;;;;;;;4.88;1.10;;;20.40;1.00;;;;;;4943391;28;20176;-88
2022/07/05 11:42:54;;;;;;;2.88;1.42;;;21.00;1.00;;;;;;4942543;28;20076;-90
2022/07/05 11:45:20;;;;;;;3.38;0.85;;;21.40;1.00;;;;;;4965005;28;20086;-88
2022/07/05 11:47:46;;;;;;;3.47;0.90;;;21.50;1.00;;;;;;4945905;28;20038;-89
2022/07/05 11:50:12;;;;;;;2.00;0.80;;;21.20;1.00;;;;;;4946719;28;20039;-89
2022/07/05 11:52:39;;;;;;;2.72;0.80;;;21.70;1.00;;;;;;4963699;28;20175;-89
2022/07/05 11:55:10;;;;;;;2.85;0.65;;;21.60;1.00;;;;;;4952790;28;20066;-89
2022/07/05 11:57:37;;;;;;;2.53;0.82;;;21.30;1.00;;;;;;4967452;28;20054;-88
2022/07/05 12:00:07;;;;;;;3.17;0.73;;;21.30;1.00;;;;;;4944567;28;20046;-90
2022/07/05 12:02:43;;;;;;;2.05;0.80;;;21.30;1.00;;;;;;4943593;28;20042;-90
2022/07/05 12:05:09;;;;;;;3.28;1.13;;;21.80;1.00;;;;;;4947255;28;20537;-89
2022/07/05 12:07:35;;;;;;;3.13;0.85;;;21.90;1.00;;;;;;4966477;28;20046;-88
2022/07/05 12:12:47;;;;;;;4.40;1.20;;;22.20;1.00;;;;;;4960401;28;20043;-88
2022/07/05 12:15:20;;;;;;;1.95;0.88;;;21.10;1.00;;;;;;4947606;28;20069;-88
2022/07/05 12:17:55;;;;;;;2.67;0.80;;;21.40;1.00;;;;;;4944813;28;20126;-89
2022/07/05 12:20:23;;;;;;;6.03;1.27;;;21.20;1.00;;;;;;4961849;28;20069;-90
2022/07/05 12:22:53;;;;;;;3.53;1.05;;;20.10;1.00;;;;;;4947658;28;20097;-90
2022/07/05 12:25:21;;;;;;;4.15;0.90;;;19.90;1.00;;;;;;4962358;28;20499;-90
2022/07/05 12:27:48;;;;;;;3.22;1.13;;;19.40;1.00;;;;;;4945722;28;20489;-89
2022/07/05 12:30:15;;;;;;;4.00;1.20;;;19.20;1.00;;;;;;4941120;28;20097;-89
2022/07/05 12:33:01;;;;;;;3.60;1.23;;;19.10;1.00;;;;;;4946297;28;20534;-89
2022/07/05 12:35:43;;;;;;;5.20;1.38;;;19.00;1.00;;;;;;4965559;28;20098;-90
2022/07/05 12:38:20;;;;;;;2.55;0.90;;;19.20;1.00;;;;;;4946088;28;20166;-90
2022/07/05 12:40:59;;;;;;;4.00;1.13;;;18.80;1.00;;;;;;4960799;28;20209;-89
2022/07/05 12:43:24;;;;;;;2.55;1.20;;;18.70;1.00;;;;;;4949403;28;20068;-90
2022/07/05 12:46:07;;;;;;;3.05;1.20;;;19.10;1.00;;;;;;4947204;28;20352;-91
2022/07/05 12:48:38;;;;;;;3.60;1.20;;;19.60;1.00;;;;;;4963334;28;20050;-90
2022/07/05 12:51:05;;;;;;;3.30;1.00;;;20.10;1.00;;;;;;4946143;28;20031;-91
2022/07/05 12:59:04;;;;;;;4.28;1.30;;;20.30;1.00;;;;;;4954941;28;20058;-90
2022/07/05 13:01:42;;;;;;;4.72;1.33;;;20.70;1.00;;;;;;4942795;28;20185;-90
2022/07/05 13:04:18;;;;;;;2.97;1.50;;;20.70;1.00;;;;;;4941767;28;20406;-90
2022/07/05 13:06:54;;;;;;;2.90;1.00;;;20.60;1.00;;;;;;4943599;28;20043;-90
2022/07/05 13:09:32;;;;;;;4.68;1.20;;;20.10;1.00;;;;;;4958376;28;20049;-91